• Join FlightAware (Why Join?)
  • Login
  • US Flag 
06:07AM EST


 

Airport Tracker/Info


-or-


 

Live Flight TrackerFlight Track Log ✈ UPS1231 ✈ 04-Oct-2013 ✈ KRIC - KSDF

Flight Track Log - Related Links

Times and Time Zones

All times are in EDT time to prevent confusion due to time zone crossing. See the UPS1231 flight status page for this flight to view local times or setup timezone preferences in your user account.

Time Position Orientation Groundspeed Altitude Reporting Facility
EDT Latitude Longitude Course Direction KTS MPH feet Rate Location/Type
10:12PM 37.4040 -77.4720 264° West 274 315 7,300  Level FlightAware
10:13PM 37.3990 -77.5240 263° West 289 333 8,700 1,875 Climbing FlightAware
10:13PM 37.3970 -77.5440 263° West 291 335 8,800 1,650 Climbing FlightAware
10:14PM 37.3920 -77.5950 263° West 295 339 9,800 2,226 Climbing FlightAware
10:14PM 37.3880 -77.6610 266° West 330 380 11,100 2,027 Climbing FlightAware
10:15PM 37.3810 -77.7350 263° West 360 414 12,300 2,417 Climbing FlightAware
10:15PM 37.3740 -77.8080 263° West 368 423 14,000 2,700 Climbing FlightAware
10:16PM 37.3690 -77.8780 265° West 380 437 15,900 2,519 Climbing FlightAware
10:17PM 37.3580 -77.9870 263° West 386 444 17,400 2,301 Climbing FlightAware
10:17PM 37.3540 -78.0660 266° West 394 453 18,700 2,229 Climbing FlightAware
10:18PM 37.3520 -78.1490 268° West 401 461 20,000 2,143 Climbing FlightAware
10:18PM 37.3490 -78.2320 267° West 406 467 21,200 1,971 Climbing FlightAware
10:19PM 37.3470 -78.3150 268° West 411 473 22,300 2,000 Climbing FlightAware
10:20PM 37.3450 -78.3960 268° West 415 478 23,500 2,000 Climbing FlightAware
10:20PM 37.3420 -78.4890 268° West 419 482 24,700 1,808 Climbing FlightAware
10:21PM 37.3390 -78.5760 268° West 424 488 25,700 1,676 Climbing FlightAware
10:21PM 37.3360 -78.6550 267° West 429 494 26,600 1,147 Climbing FlightAware
10:22PM 37.3330 -78.7470 268° West 436 502 27,000 917 Climbing FlightAware
10:23PM 37.3300 -78.8360 268° West 437 503 27,700 1,543 Climbing FlightAware
10:23PM 37.3270 -78.9210 267° West 437 503 28,800 2,053 Climbing FlightAware
10:24PM 37.3240 -79.0290 268° West 431 496 30,300 2,154 Climbing FlightAware
10:24PM 37.3200 -79.1190 267° West 427 491 31,600 1,233 Climbing FlightAware
10:25PM 37.3170 -79.1980 267° West 427 491 31,800 164 Climbing FlightAware
10:26PM 37.3140 -79.2740 267° West 427 491 31,800  Level FlightAware
10:26PM 37.3110 -79.3500 267° West 427 491 31,800  Level FlightAware
10:27PM 37.3080 -79.4250 267° West 427 491 31,800  Level FlightAware
10:27PM 37.3040 -79.5010 266° West 427 491 31,800  Level FlightAware
10:28PM 37.3010 -79.5770 267° West 427 491 31,800  Level FlightAware
10:29PM 37.2980 -79.6550 267° West 427 491 31,800  Level FlightAware
10:29PM 37.2950 -79.7310 267° West 427 491 31,800  Level FlightAware
10:30PM 37.2920 -79.8070 267° West 427 491 31,800  Level FlightAware
10:30PM 37.2890 -79.8830 267° West 427 491 31,800  Level FlightAware
10:31PM 37.2850 -79.9590 266° West 427 491 31,800  Level FlightAware
10:32PM 37.2820 -80.0350 267° West 427 491 31,800  Level FlightAware
10:32PM 37.2790 -80.1110 267° West 427 491 31,800  Level FlightAware
10:33PM 37.2760 -80.1860 267° West 427 491 31,800  Level FlightAware
10:33PM 37.2730 -80.2640 267° West 427 491 31,800  Level FlightAware
10:34PM 37.2690 -80.3400 266° West 427 491 31,800 113 Level FlightAware
10:35PM 37.2547 -80.7058 266° West 423 487 32,000 92 Climbing Indianapolis Center
10:36PM 37.2464 -80.8492 266° West 424 488 32,000  Level Indianapolis Center
10:42PM 37.1991 -81.6955 266° West 425 489 32,000  Level FlightAware ADS-B
10:42PM 37.1947 -81.7712 266° West 424 488 32,000  Level FlightAware ADS-B
10:43PM 37.1903 -81.8454 266° West 423 487 32,000  Level FlightAware ADS-B
10:43PM 37.1859 -81.9194 266° West 423 487 32,000  Level FlightAware ADS-B
10:44PM 37.1807 -82.0061 266° West 423 487 32,000  Level FlightAware ADS-B
10:45PM 37.1762 -82.0811 266° West 423 487 32,000  Level FlightAware ADS-B
10:45PM 37.1701 -82.1767 265° West 423 487 32,000  Level FlightAware ADS-B
10:46PM 37.1653 -82.2522 265° West 423 487 32,000  Level FlightAware ADS-B
10:46PM 37.1602 -82.3302 265° West 423 487 32,000  Level FlightAware ADS-B
10:47PM 37.1552 -82.4087 265° West 423 487 32,000  Level FlightAware ADS-B
10:47PM 37.1502 -82.4858 265° West 423 487 32,000  Level FlightAware ADS-B
10:48PM 37.1453 -82.5609 265° West 423 487 32,000  Level FlightAware ADS-B
10:48PM 37.1403 -82.6379 265° West 423 487 32,000  Level FlightAware ADS-B
10:49PM 37.1353 -82.7135 265° West 423 487 32,000  Level FlightAware ADS-B
10:49PM 37.1304 -82.7870 265° West 424 488 32,000  Level FlightAware ADS-B
10:50PM 37.1253 -82.8634 265° West 424 488 32,000  Level FlightAware ADS-B
10:50PM 37.1201 -82.9399 265° West 424 488 32,000  Level FlightAware ADS-B
10:51PM 37.1151 -83.0134 265° West 423 487 32,000  Level FlightAware ADS-B
10:51PM 37.1099 -83.0883 265° West 424 488 32,000  Level FlightAware ADS-B
10:52PM 37.1046 -83.1633 265° West 424 488 32,000  Level FlightAware ADS-B
10:52PM 37.0993 -83.2389 265° West 424 488 32,000  Level FlightAware ADS-B
10:53PM 37.0940 -83.3123 265° West 424 488 32,000  Level FlightAware ADS-B
10:53PM 37.0887 -83.3862 265° West 424 488 32,000  Level FlightAware ADS-B
10:54PM 37.0862 -83.4263 266° West 423 487 32,000  Level FlightAware ADS-B
10:54PM 37.0861 -83.4454 270° West 422 486 32,000  Level FlightAware ADS-B
10:54PM 37.0890 -83.4794 276° West 420 483 32,000  Level FlightAware ADS-B
10:54PM 37.0919 -83.4961 282° West 420 483 32,000  Level FlightAware ADS-B
10:54PM 37.0992 -83.5248 288° West 420 483 32,000  Level FlightAware ADS-B
10:55PM 37.1249 -83.5916 296° West 420 483 32,000 -197 Level FlightAware ADS-B
10:55PM 37.1518 -83.6594 296° West 420 483 31,800 -871 Descending FlightAware ADS-B
10:56PM 37.1782 -83.7256 297° West 422 486 31,100 -1,116 Descending FlightAware ADS-B
10:57PM 37.2256 -83.8476 296° West 420 483 30,200 -1,047 Descending FlightAware ADS-B
10:57PM 37.2521 -83.9166 296° West 420 483 29,600 -1,120 Descending FlightAware ADS-B
10:58PM 37.2888 -84.0113 296° West 407 468 28,800 -1,807 Descending FlightAware ADS-B
10:59PM 37.3209 -84.0941 296° West 405 466 27,100 -2,696 Descending FlightAware ADS-B
10:59PM 37.3457 -84.1578 296° West 405 466 25,700 -2,677 Descending FlightAware ADS-B
11:00PM 37.3751 -84.2324 296° West 406 467 24,200 -2,206 Descending FlightAware ADS-B
11:00PM 37.4018 -84.3002 296° West 386 444 23,200 -2,095 Descending FlightAware ADS-B
11:01PM 37.4250 -84.3591 296° West 381 438 22,000 -2,262 Descending FlightAware ADS-B
11:01PM 37.4486 -84.4192 296° West 377 434 20,900 -2,447 Descending FlightAware ADS-B
11:02PM 37.4830 -84.5070 296° West 372 428 18,900 -2,667 Descending FlightAware
11:03PM 37.5100 -84.5770 296° West 372 428 17,300 -2,735 Descending FlightAware
11:03PM 37.5330 -84.6370 296° West 376 433 15,800 -2,471 Descending FlightAware
11:04PM 37.5610 -84.7100 296° West 361 415 14,500 -2,384 Descending FlightAware
11:04PM 37.5880 -84.7790 296° West 358 412 12,900 -2,559 Descending FlightAware
11:05PM 37.6100 -84.8350 296° West 354 407 11,600 -1,791 Descending FlightAware
11:06PM 37.6350 -84.9030 295° West 348 400 10,900 -568 Descending FlightAware
11:06PM 37.6680 -84.9720 301° West 349 402 10,900 -405 Level FlightAware
11:07PM 37.7060 -85.0250 312° West 348 400 10,400 -938 Descending FlightAware
11:07PM 37.7370 -85.0680 312° West 347 399 9,900 -947 Descending FlightAware
11:07PM 37.7480 -85.0840 311° West 346 398 9,800 -167 Descending FlightAware
11:08PM 37.7740 -85.1240 309° West 319 367 9,800  Level FlightAware
11:08PM 37.7830 -85.1420 302° West 304 350 9,800  Level FlightAware
11:08PM 37.7950 -85.1740 295° West 286 329 9,800  Level FlightAware
11:09PM 37.8080 -85.2090 295° West 282 325 9,800  Level FlightAware
11:09PM 37.8150 -85.2270 296° West 282 325 9,800 -563 Level FlightAware
11:09PM 37.8260 -85.2560 296° West 280 322 9,500 -1,250 Descending FlightAware
11:10PM 37.8410 -85.2970 295° West 279 321 8,800 -1,600 Descending FlightAware
11:10PM 37.8510 -85.3230 296° West 278 320 8,300 -1,622 Descending FlightAware
11:10PM 37.8620 -85.3530 295° West 276 318 7,800 -1,400 Descending FlightAware
11:11PM 37.8680 -85.3680 297° West 276 318 7,600 -1,440 Descending FlightAware
11:11PM 37.8890 -85.4260 295° West 272 313 6,600 -1,600 Descending FlightAware
11:12PM 37.8990 -85.4550 294° West 271 312 6,000 -1,500 Descending FlightAware
11:12PM 37.9090 -85.4830 294° West 269 310 5,600 -1,350 Descending FlightAware
11:12PM 37.9200 -85.5120 296° West 268 308 5,100 -1,500 Descending FlightAware
11:13PM 37.9310 -85.5420 295° West 267 307 4,500 -1,500 Descending FlightAware
11:13PM 37.9360 -85.5500 308° West 269 310 4,400 -1,200 Descending FlightAware
11:13PM 37.9510 -85.5670 318° Northwest 264 304 4,100 -1,000 Descending FlightAware
11:13PM 37.9700 -85.5860 322° Northwest 252 290 3,800 -947 Descending FlightAware
11:14PM 37.9850 -85.6010 322° Northwest 239 275 3,500 -889 Descending FlightAware
11:14PM 38.0150 -85.6310 322° Northwest 211 243 3,000 -931 Descending FlightAware
11:15PM 38.0310 -85.6470 322° Northwest 201 231 2,600 -1,000 Descending FlightAware
11:15PM 38.0460 -85.6610 324° Northwest 198 228 2,300 -409 Descending FlightAware
11:15PM 38.0620 -85.6760 324° Northwest 178 205 2,300 -150 Level FlightAware
11:16PM 38.0730 -85.6870 322° Northwest 175 201 2,200 -563 Descending FlightAware
11:16PM 38.0840 -85.6950 330° Northwest 168 193 2,000 -750 Descending FlightAware
11:16PM 38.0960 -85.7000 342° North 162 186 1,800 -833 Descending FlightAware
11:16PM 38.1090 -85.7050 343° North 152 175 1,500 -900 Descending FlightAware
11:17PM 38.1220 -85.7090 346° North 148 170 1,200 -667 Descending FlightAware
11:17PM 38.1330 -85.7130 344° North 145 167 1,100 -649 Descending FlightAware
11:17PM 38.1470 -85.7180 344° North 144 166 800 -750 Descending FlightAware
11:18PM 38.1580 -85.7210 348° North 134 154 600 -615 Descending FlightAware
11:18PM 38.1710 -85.7260 343° North 127 146 400 -600 Descending FlightAware